createdAt,value
2023-03-30T00:00:40.213Z,95798.88
2023-03-30T00:01:45.001Z,95802.69
2023-03-30T00:02:49.653Z,95802.69
2023-03-30T00:03:55.584Z,95807.78
2023-03-30T00:05:03.413Z,95802.69
2023-03-30T00:06:09.484Z,95806.31
2023-03-30T00:07:11.615Z,95794.03
2023-03-30T00:08:18.662Z,95795.91
2023-03-30T00:09:23.409Z,95804.03
2023-03-30T00:10:28.091Z,95811.22
2023-03-30T00:11:34.450Z,95806.53
2023-03-30T00:12:39.215Z,95802.78
2023-03-30T00:13:42.193Z,95826.94
2023-03-30T00:14:46.790Z,95819.25
2023-03-30T00:15:49.781Z,95818.53
2023-03-30T00:16:54.484Z,95821.84
2023-03-30T00:17:56.648Z,95834.97
2023-03-30T00:19:01.254Z,95834.25
2023-03-30T00:20:06.350Z,95846.56
2023-03-30T00:21:12.332Z,95849.34
2023-03-30T00:22:14.401Z,95856.78
2023-03-30T00:23:19.147Z,95862.63
2023-03-30T00:24:23.854Z,95856.16
2023-03-30T00:25:28.804Z,95856.41
2023-03-30T00:26:31.141Z,95866.94
2023-03-30T00:27:36.197Z,95862.69
2023-03-30T00:28:38.701Z,95850.59
2023-03-30T00:29:43.351Z,95853.44
2023-03-30T00:30:45.400Z,95844.13
2023-03-30T00:31:50.186Z,95846.09
2023-03-30T00:32:52.381Z,95852.00
2023-03-30T00:33:57.109Z,95846.25
2023-03-30T00:34:59.173Z,95841.91
2023-03-30T00:36:04.069Z,95844.50
2023-03-30T00:37:06.195Z,95847.19
2023-03-30T00:38:10.920Z,95846.56
2023-03-30T00:39:13.995Z,95843.97
2023-03-30T00:40:24.059Z,95844.69
2023-03-30T00:41:26.477Z,95836.69
2023-03-30T00:42:31.250Z,95837.97
2023-03-30T00:43:33.832Z,95841.09
2023-03-30T00:45:12.721Z,95841.09
2023-03-30T00:46:14.876Z,95839.06
2023-03-30T00:47:20.013Z,95837.09
2023-03-30T00:48:25.542Z,95835.78
2023-03-30T00:49:32.112Z,95838.66
2023-03-30T00:50:37.487Z,95830.28
2023-03-30T00:51:45.411Z,95830.41
2023-03-30T00:52:48.934Z,95820.28
2023-03-30T00:53:57.789Z,95826.41
2023-03-30T00:55:00.200Z,95823.81
2023-03-30T00:56:10.460Z,95814.31
2023-03-30T00:57:13.907Z,95813.69
2023-03-30T00:58:21.426Z,95817.28
2023-03-30T00:59:23.522Z,95817.28
2023-03-30T01:00:28.588Z,95822.47
2023-03-30T01:01:34.240Z,95817.47
2023-03-30T01:02:44.164Z,95820.06
2023-03-30T01:03:50.964Z,95822.75
2023-03-30T01:04:57.616Z,95817.63
2023-03-30T01:06:05.879Z,95821.16
2023-03-30T01:07:12.560Z,95816.88
2023-03-30T01:08:18.474Z,95823.66
2023-03-30T01:09:20.481Z,95809.84
2023-03-30T01:10:25.131Z,95806.44
2023-03-30T01:11:32.376Z,95800.06
2023-03-30T01:12:34.731Z,95791.50
2023-03-30T01:13:41.721Z,95781.13
2023-03-30T01:14:43.811Z,95776.69
2023-03-30T01:16:01.439Z,95768.72
2023-03-30T01:17:13.824Z,95766.22
2023-03-30T01:18:30.740Z,95755.38
2023-03-30T01:19:49.911Z,95755.22
2023-03-30T01:21:24.895Z,95749.31
2023-03-30T01:22:54.028Z,95749.75
2023-03-30T01:24:30.488Z,95751.06
2023-03-30T01:25:50.274Z,95752.09
2023-03-30T01:27:01.357Z,95753.94
2023-03-30T01:28:25.753Z,95742.72
2023-03-30T01:29:43.257Z,95744.28
2023-03-30T01:31:04.635Z,95738.53
2023-03-30T01:32:58.543Z,95737.34
2023-03-30T01:34:28.632Z,95732.97
2023-03-30T01:36:03.604Z,95723.22
2023-03-30T01:37:49.939Z,95727.13
2023-03-30T01:39:11.885Z,95727.41
2023-03-30T01:40:17.573Z,95733.72
2023-03-30T01:41:26.077Z,95734.72
2023-03-30T01:42:38.855Z,95731.00
2023-03-30T01:43:51.416Z,95737.88
2023-03-30T01:45:07.279Z,95732.34
2023-03-30T01:46:17.301Z,95733.34
2023-03-30T01:47:26.619Z,95732.50
2023-03-30T01:48:36.833Z,95735.00
2023-03-30T01:49:47.256Z,95734.19
2023-03-30T01:50:53.616Z,95728.97
2023-03-30T01:52:05.476Z,95738.53
2023-03-30T01:53:14.594Z,95728.16
2023-03-30T01:54:26.012Z,95735.19
2023-03-30T01:55:33.598Z,95739.44
2023-03-30T01:56:43.626Z,95748.53
2023-03-30T01:57:50.691Z,95748.63
2023-03-30T01:58:59.803Z,95761.50
2023-03-30T02:00:13.207Z,95776.72
2023-03-30T02:01:20.851Z,95779.25
2023-03-30T02:02:26.510Z,95775.78
2023-03-30T02:03:34.301Z,95776.34
2023-03-30T02:04:40.864Z,95773.03
2023-03-30T02:05:49.653Z,95767.84
2023-03-30T02:06:57.032Z,95770.69
2023-03-30T02:08:04.828Z,95761.34
2023-03-30T02:09:10.596Z,95755.50
2023-03-30T02:10:21.181Z,95755.56
2023-03-30T02:11:26.591Z,95744.63
2023-03-30T02:12:32.543Z,95759.47
2023-03-30T02:13:36.349Z,95760.56
2023-03-30T02:14:43.627Z,95766.00
2023-03-30T02:15:50.662Z,95768.69
2023-03-30T02:17:00.549Z,95764.44
2023-03-30T02:18:03.348Z,95763.69
2023-03-30T02:19:08.982Z,95761.66
2023-03-30T02:20:13.260Z,95768.66
2023-03-30T02:21:17.905Z,95763.84
2023-03-30T02:22:20.651Z,95770.03
2023-03-30T02:23:29.790Z,95767.34
2023-03-30T02:24:33.164Z,95774.41
2023-03-30T02:25:41.177Z,95769.22
2023-03-30T02:26:43.823Z,95776.63
2023-03-30T02:27:48.437Z,95783.47
2023-03-30T02:28:50.803Z,95782.66
2023-03-30T02:29:56.550Z,95792.09
2023-03-30T02:30:58.704Z,95784.47
2023-03-30T02:32:03.811Z,95785.41
2023-03-30T02:33:07.720Z,95788.25
2023-03-30T02:34:21.851Z,95794.38
2023-03-30T02:35:51.075Z,95790.50
2023-03-30T02:37:13.594Z,95784.41
2023-03-30T02:38:32.474Z,95783.88
2023-03-30T02:39:47.986Z,95785.34
2023-03-30T02:40:58.504Z,95778.50
2023-03-30T02:42:37.203Z,95770.28
2023-03-30T02:43:46.576Z,95773.91
2023-03-30T02:44:57.957Z,95770.00
2023-03-30T02:46:15.395Z,95768.34
2023-03-30T02:47:28.118Z,95765.75
2023-03-30T02:48:39.998Z,95765.38
2023-03-30T02:49:56.572Z,95759.13
2023-03-30T02:51:11.153Z,95763.31
2023-03-30T02:52:26.261Z,95763.19
2023-03-30T02:53:37.471Z,95764.78
2023-03-30T02:54:47.986Z,95761.16
2023-03-30T02:56:04.645Z,95757.09
2023-03-30T02:57:12.137Z,95765.53
2023-03-30T02:58:21.698Z,95769.88
2023-03-30T02:59:28.926Z,95768.03
2023-03-30T03:00:41.816Z,95773.22
2023-03-30T03:01:51.128Z,95769.28
2023-03-30T03:03:00.301Z,95775.84
2023-03-30T03:04:07.309Z,95781.06
2023-03-30T03:05:11.306Z,95776.50
2023-03-30T03:06:18.090Z,95778.16
2023-03-30T03:07:21.171Z,95783.47
2023-03-30T03:08:28.280Z,95785.31
2023-03-30T03:09:30.421Z,95790.25
2023-03-30T03:10:37.158Z,95785.50
2023-03-30T03:11:41.864Z,95787.81
2023-03-30T03:12:48.150Z,95785.28
2023-03-30T03:13:50.696Z,95781.75
2023-03-30T03:14:55.307Z,95782.91
2023-03-30T03:15:57.620Z,95788.44
2023-03-30T03:17:02.330Z,95781.03
2023-03-30T03:18:04.589Z,95781.94
2023-03-30T03:19:09.827Z,95776.78
2023-03-30T03:20:12.234Z,95780.22
2023-03-30T03:21:16.924Z,95776.47
2023-03-30T03:22:18.997Z,95777.88
2023-03-30T03:23:23.591Z,95776.28
2023-03-30T03:24:25.658Z,95776.84
2023-03-30T03:25:30.362Z,95774.59
2023-03-30T03:26:32.449Z,95779.69
2023-03-30T03:27:39.713Z,95790.25
2023-03-30T03:28:41.964Z,95770.88
2023-03-30T03:29:46.820Z,95776.44
2023-03-30T03:30:49.614Z,95782.81
2023-03-30T03:31:54.310Z,95779.66
2023-03-30T03:32:57.231Z,95775.38
2023-03-30T03:34:02.049Z,95774.81
2023-03-30T03:35:04.538Z,95772.56
2023-03-30T03:36:11.215Z,95773.50
2023-03-30T03:37:16.155Z,95766.66
2023-03-30T03:38:18.157Z,95753.56
2023-03-30T03:39:22.880Z,95739.69
2023-03-30T03:40:24.974Z,95721.44
2023-03-30T03:41:29.638Z,95713.91
2023-03-30T03:42:31.739Z,95726.22
2023-03-30T03:43:39.573Z,95741.03
2023-03-30T03:44:41.596Z,95732.34
2023-03-30T03:45:47.984Z,95729.94
2023-03-30T03:46:50.146Z,95720.66
2023-03-30T03:47:55.088Z,95706.97
2023-03-30T03:48:57.193Z,95720.66
2023-03-30T03:50:04.026Z,95715.47
2023-03-30T03:51:06.667Z,95714.88
2023-03-30T03:52:11.314Z,95719.25
2023-03-30T03:53:13.452Z,95723.59
2023-03-30T03:54:18.297Z,95728.97
2023-03-30T03:55:20.410Z,95730.91
2023-03-30T03:56:25.413Z,95733.41
2023-03-30T03:57:27.832Z,95736.75
2023-03-30T03:58:33.245Z,95730.81
2023-03-30T03:59:37.925Z,95724.03
2023-03-30T04:00:42.695Z,95718.97
2023-03-30T04:01:44.822Z,95718.19
2023-03-30T04:02:49.566Z,95722.56
2023-03-30T04:03:54.259Z,95711.53
2023-03-30T04:04:57.819Z,95700.22
2023-03-30T04:06:03.370Z,95684.69
2023-03-30T04:07:05.870Z,95682.09
2023-03-30T04:08:12.098Z,95674.38
2023-03-30T04:09:14.147Z,95683.03
2023-03-30T04:10:18.896Z,95688.56
2023-03-30T04:11:21.509Z,95692.66
2023-03-30T04:12:26.607Z,95683.06
2023-03-30T04:13:28.687Z,95679.69
2023-03-30T04:14:33.682Z,95672.84
2023-03-30T04:15:38.423Z,95677.88
2023-03-30T04:16:43.991Z,95678.75
2023-03-30T04:17:50.134Z,95670.41
2023-03-30T04:18:54.852Z,95663.69
2023-03-30T04:19:56.934Z,95661.16
2023-03-30T04:21:03.207Z,95655.03
2023-03-30T04:22:06.527Z,95660.03
2023-03-30T04:23:22.157Z,95653.31
2023-03-30T04:24:24.523Z,95650.97
2023-03-30T04:25:29.427Z,95660.59
2023-03-30T04:26:31.538Z,95654.75
2023-03-30T04:27:37.858Z,95663.53
2023-03-30T04:28:40.419Z,95664.47
2023-03-30T04:29:45.083Z,95652.41
2023-03-30T04:30:50.897Z,95649.81
2023-03-30T04:31:56.940Z,95656.69
2023-03-30T04:33:03.807Z,95655.13
2023-03-30T04:34:09.702Z,95651.69
2023-03-30T04:35:11.987Z,95649.19
2023-03-30T04:36:17.871Z,95657.03
2023-03-30T04:37:30.319Z,95652.88
2023-03-30T04:38:36.692Z,95657.22
2023-03-30T04:39:38.783Z,95657.38
2023-03-30T04:40:43.410Z,95660.09
2023-03-30T04:41:46.305Z,95659.25
2023-03-30T04:42:51.834Z,95658.41
2023-03-30T04:43:53.898Z,95657.66
2023-03-30T04:44:58.615Z,95649.03
2023-03-30T04:46:03.278Z,95646.53
2023-03-30T04:47:08.225Z,95637.00
2023-03-30T04:48:10.386Z,95622.47
2023-03-30T04:49:15.036Z,95615.44
2023-03-30T04:50:17.248Z,95615.44
2023-03-30T04:51:21.943Z,95624.22
2023-03-30T04:52:23.991Z,95615.72
2023-03-30T04:53:28.604Z,95620.16
2023-03-30T04:54:33.138Z,95628.84
2023-03-30T04:55:38.011Z,95621.06
2023-03-30T04:56:43.390Z,95632.19
2023-03-30T04:57:45.577Z,95626.34
2023-03-30T04:58:50.455Z,95622.91
2023-03-30T04:59:53.846Z,95624.66
2023-03-30T05:00:59.248Z,95604.03
2023-03-30T05:02:04.246Z,95607.34
2023-03-30T05:03:09.062Z,95606.44
2023-03-30T05:04:11.314Z,95606.44
2023-03-30T05:05:16.147Z,95604.88
2023-03-30T05:06:18.231Z,95604.94
2023-03-30T05:07:22.934Z,95606.63
2023-03-30T05:08:27.555Z,95600.88
2023-03-30T05:09:29.649Z,95596.63
2023-03-30T05:10:34.376Z,95590.69
2023-03-30T05:11:36.486Z,95589.75
2023-03-30T05:12:41.272Z,95588.09
2023-03-30T05:13:43.324Z,95576.91
2023-03-30T05:14:48.005Z,95569.97
2023-03-30T05:15:53.605Z,95562.19
2023-03-30T05:16:59.007Z,95563.84
2023-03-30T05:18:03.842Z,95566.53
2023-03-30T05:19:08.598Z,95570.03
2023-03-30T05:20:11.402Z,95566.69
2023-03-30T05:21:16.057Z,95561.38
2023-03-30T05:22:18.104Z,95563.84
2023-03-30T05:23:24.660Z,95567.28
2023-03-30T05:24:26.920Z,95567.28
2023-03-30T05:25:32.087Z,95563.84
2023-03-30T05:26:34.549Z,95565.53
2023-03-30T05:27:39.265Z,95555.06
2023-03-30T05:28:43.251Z,95562.75
2023-03-30T05:29:48.125Z,95567.78
2023-03-30T05:30:54.128Z,95561.56
2023-03-30T05:31:58.839Z,95569.00
2023-03-30T05:33:03.692Z,95570.38
2023-03-30T05:34:08.759Z,95576.84
2023-03-30T05:35:13.430Z,95575.03
2023-03-30T05:36:15.982Z,95570.59
2023-03-30T05:37:20.825Z,95564.84
2023-03-30T05:38:22.881Z,95564.84
2023-03-30T05:39:27.528Z,95562.91
2023-03-30T05:40:29.636Z,95560.22
2023-03-30T05:41:34.472Z,95568.00
2023-03-30T05:42:36.662Z,95561.16
2023-03-30T05:43:41.555Z,95557.53
2023-03-30T05:44:43.672Z,95562.81
2023-03-30T05:45:48.500Z,95560.03
2023-03-30T05:46:53.203Z,95558.28
2023-03-30T05:47:55.316Z,95564.28
2023-03-30T05:49:02.609Z,95564.09
2023-03-30T05:50:06.612Z,95566.69
2023-03-30T05:51:11.270Z,95565.78
2023-03-30T05:52:13.538Z,95577.75
2023-03-30T05:53:18.545Z,95572.38
2023-03-30T05:54:23.179Z,95576.44
2023-03-30T05:55:25.309Z,95577.19
2023-03-30T05:56:30.097Z,95570.22
2023-03-30T05:57:32.359Z,95568.13
2023-03-30T05:58:37.074Z,95574.88
2023-03-30T05:59:41.807Z,95560.16
2023-03-30T06:00:48.497Z,95560.41
2023-03-30T06:01:50.597Z,95569.13
2023-03-30T06:02:55.466Z,95562.72
2023-03-30T06:04:03.029Z,95551.97
2023-03-30T06:05:08.551Z,95553.63
2023-03-30T06:06:13.905Z,95558.91
2023-03-30T06:07:16.184Z,95560.75
2023-03-30T06:08:22.653Z,95575.59
2023-03-30T06:09:27.642Z,95577.34
2023-03-30T06:10:29.718Z,95581.72
2023-03-30T06:11:36.433Z,95580.59
2023-03-30T06:12:40.255Z,95561.50
2023-03-30T06:13:44.984Z,95554.28
2023-03-30T06:14:47.056Z,95540.56
2023-03-30T06:15:51.828Z,95550.00
2023-03-30T06:16:57.414Z,95548.91
2023-03-30T06:17:59.662Z,95546.09
2023-03-30T06:19:07.298Z,95549.06
2023-03-30T06:20:12.769Z,95551.19
2023-03-30T06:21:17.514Z,95550.63
2023-03-30T06:22:19.609Z,95550.72
2023-03-30T06:23:24.298Z,95555.91
2023-03-30T06:24:26.308Z,95551.53
2023-03-30T06:25:31.160Z,95561.00
2023-03-30T06:26:33.222Z,95559.25
2023-03-30T06:27:38.065Z,95571.59
2023-03-30T06:28:40.102Z,95573.44
2023-03-30T06:29:45.406Z,95581.13
2023-03-30T06:30:49.407Z,95582.81
2023-03-30T06:31:54.070Z,95590.41
2023-03-30T06:32:56.477Z,95596.22
2023-03-30T06:34:01.266Z,95602.16
2023-03-30T06:35:06.750Z,95607.34
2023-03-30T06:36:14.500Z,95606.53
2023-03-30T06:37:16.820Z,95604.84
2023-03-30T06:38:22.839Z,95620.34
2023-03-30T06:39:25.633Z,95614.19
2023-03-30T06:40:30.339Z,95615.97
2023-03-30T06:41:32.420Z,95619.19
2023-03-30T06:42:37.535Z,95610.59
2023-03-30T06:43:42.844Z,95618.91
2023-03-30T06:44:44.891Z,95610.75
2023-03-30T06:45:53.045Z,95608.91
2023-03-30T06:46:55.124Z,95613.16
2023-03-30T06:48:00.294Z,95607.22
2023-03-30T06:49:02.836Z,95602.03
2023-03-30T06:50:11.938Z,95605.47
2023-03-30T06:51:14.717Z,95607.22
2023-03-30T06:52:20.077Z,95614.00
2023-03-30T06:53:23.398Z,95619.00
2023-03-30T06:54:28.312Z,95620.25
2023-03-30T06:55:30.414Z,95621.94
2023-03-30T06:56:35.049Z,95623.69
2023-03-30T06:57:39.666Z,95623.59
2023-03-30T06:58:41.912Z,95632.97
2023-03-30T06:59:46.684Z,95620.94
2023-03-30T07:00:51.913Z,95618.47
2023-03-30T07:01:54.200Z,95624.69
2023-03-30T07:02:59.481Z,95632.56
2023-03-30T07:04:02.853Z,95627.81
2023-03-30T07:05:13.208Z,95627.44
2023-03-30T07:06:20.080Z,95628.53
2023-03-30T07:07:25.293Z,95628.25
2023-03-30T07:08:29.984Z,95620.16
2023-03-30T07:09:34.938Z,95635.44
2023-03-30T07:10:39.592Z,95631.91
2023-03-30T07:11:44.209Z,95629.75
2023-03-30T07:12:46.393Z,95632.03
2023-03-30T07:13:51.149Z,95627.59
2023-03-30T07:14:55.887Z,95635.84
2023-03-30T07:15:58.072Z,95648.50
2023-03-30T07:17:02.804Z,95650.00
2023-03-30T07:18:08.550Z,95654.53
2023-03-30T07:19:13.294Z,95652.97
2023-03-30T07:20:18.071Z,95651.97
2023-03-30T07:21:22.837Z,95647.31
2023-03-30T07:22:25.016Z,95656.03
2023-03-30T07:23:29.657Z,95658.75
2023-03-30T07:24:32.156Z,95666.50
2023-03-30T07:25:36.791Z,95667.75
2023-03-30T07:26:41.486Z,95671.81
2023-03-30T07:27:43.634Z,95672.97
2023-03-30T07:28:48.306Z,95673.38
2023-03-30T07:29:50.426Z,95681.59
2023-03-30T07:30:55.192Z,95685.66
2023-03-30T07:31:57.361Z,95684.00
2023-03-30T07:33:02.213Z,95688.25
2023-03-30T07:34:04.632Z,95693.78
2023-03-30T07:35:09.765Z,95700.66
2023-03-30T07:36:14.463Z,95708.75
2023-03-30T07:37:20.736Z,95706.81
2023-03-30T07:38:25.688Z,95716.25
2023-03-30T07:39:28.203Z,95717.06
2023-03-30T07:40:32.838Z,95721.84
2023-03-30T07:41:37.740Z,95728.38
2023-03-30T07:42:40.581Z,95732.81
2023-03-30T07:43:45.633Z,95731.16
2023-03-30T07:44:47.740Z,95738.22
2023-03-30T07:45:52.436Z,95729.94
2023-03-30T07:46:57.054Z,95743.25
2023-03-30T07:47:59.229Z,95742.66
2023-03-30T07:49:03.878Z,95747.59
2023-03-30T07:50:10.337Z,95754.84
2023-03-30T07:51:15.152Z,95751.88
2023-03-30T07:52:19.795Z,95755.81
2023-03-30T07:53:22.891Z,95747.66
2023-03-30T07:54:27.896Z,95757.84
2023-03-30T07:55:32.843Z,95753.03
2023-03-30T07:56:39.730Z,95744.88
2023-03-30T07:57:42.458Z,95754.41
2023-03-30T07:58:47.266Z,95753.00
2023-03-30T07:59:49.474Z,95750.78
2023-03-30T08:00:54.112Z,95761.91
2023-03-30T08:01:58.792Z,95757.66
2023-03-30T08:03:00.844Z,95758.38
2023-03-30T08:04:06.618Z,95759.50
2023-03-30T08:05:09.790Z,95759.69
2023-03-30T08:06:17.304Z,95753.00
2023-03-30T08:07:22.078Z,95746.78
2023-03-30T08:08:26.893Z,95745.88
2023-03-30T08:09:31.544Z,95732.22
2023-03-30T08:10:36.733Z,95730.56
2023-03-30T08:11:38.773Z,95714.88
2023-03-30T08:12:43.962Z,95716.00
2023-03-30T08:13:48.601Z,95706.63
2023-03-30T08:14:53.313Z,95711.94
2023-03-30T08:15:59.010Z,95703.84
2023-03-30T08:17:04.159Z,95705.34
2023-03-30T08:18:09.404Z,95698.66
2023-03-30T08:19:14.038Z,95710.53
2023-03-30T08:20:16.324Z,95719.53
2023-03-30T08:21:25.777Z,95725.56
2023-03-30T08:22:30.587Z,95729.16
2023-03-30T08:23:35.418Z,95730.41
2023-03-30T08:24:40.829Z,95728.91
2023-03-30T08:25:44.168Z,95724.44
2023-03-30T08:26:50.683Z,95721.31
2023-03-30T08:27:55.297Z,95724.44
2023-03-30T08:29:00.008Z,95722.59
2023-03-30T08:30:02.416Z,95725.09
2023-03-30T08:31:08.783Z,95728.72
2023-03-30T08:32:13.539Z,95723.16
2023-03-30T08:33:18.283Z,95729.28
2023-03-30T08:34:22.921Z,95743.53
2023-03-30T08:35:27.995Z,95767.28
2023-03-30T08:36:35.313Z,95765.91
2023-03-30T08:37:37.513Z,95770.91
2023-03-30T08:38:42.430Z,95787.13
2023-03-30T08:39:44.841Z,95778.97
2023-03-30T08:40:52.211Z,95789.72
2023-03-30T08:42:07.878Z,95792.63
2023-03-30T08:43:39.319Z,95791.75
2023-03-30T08:44:46.052Z,95811.69
2023-03-30T08:45:48.841Z,95814.38
2023-03-30T08:46:54.117Z,95797.47
2023-03-30T08:47:58.915Z,95802.50
2023-03-30T08:49:14.405Z,95802.84
2023-03-30T08:50:22.087Z,95805.34
2023-03-30T08:51:30.270Z,95805.00
2023-03-30T08:52:36.889Z,95813.25
2023-03-30T08:53:41.979Z,95813.38
2023-03-30T08:54:48.879Z,95814.97
2023-03-30T08:55:56.949Z,95805.09
2023-03-30T08:57:09.861Z,95816.00
2023-03-30T08:58:22.635Z,95808.16
2023-03-30T08:59:36.586Z,95814.00
2023-03-30T09:00:43.211Z,95813.53
2023-03-30T09:01:52.837Z,95803.50
2023-03-30T09:03:09.201Z,95816.94
2023-03-30T09:04:23.853Z,95809.81
2023-03-30T09:05:35.206Z,95811.16
2023-03-30T09:06:50.145Z,95810.78
2023-03-30T09:08:05.297Z,95816.16
2023-03-30T09:09:14.359Z,95812.81
2023-03-30T09:10:20.076Z,95810.03
2023-03-30T09:11:33.725Z,95798.72
2023-03-30T09:12:44.246Z,95781.41
2023-03-30T09:13:50.391Z,95786.13
2023-03-30T09:14:58.749Z,95778.75
2023-03-30T09:16:14.982Z,95781.34
2023-03-30T09:17:23.222Z,95770.25
2023-03-30T09:18:33.367Z,95774.97
2023-03-30T09:19:45.086Z,95777.56
2023-03-30T09:20:51.352Z,95782.88
2023-03-30T09:21:58.901Z,95771.72
2023-03-30T09:23:07.375Z,95785.63
2023-03-30T09:24:17.996Z,95778.47
2023-03-30T09:25:29.869Z,95786.31
2023-03-30T09:26:42.917Z,95783.84
2023-03-30T09:28:03.476Z,95782.63
2023-03-30T09:29:14.344Z,95773.09
2023-03-30T09:30:19.556Z,95765.38
2023-03-30T09:31:33.089Z,95769.28
2023-03-30T09:32:44.215Z,95763.41
2023-03-30T09:33:52.606Z,95767.94
2023-03-30T09:34:59.944Z,95762.19
2023-03-30T09:36:16.525Z,95755.41
2023-03-30T09:37:19.174Z,95766.66
2023-03-30T09:38:26.618Z,95763.84
2023-03-30T09:39:33.796Z,95748.53
2023-03-30T09:40:52.768Z,95751.06
2023-03-30T09:42:13.543Z,95746.94
2023-03-30T09:43:19.201Z,95755.66
2023-03-30T09:44:29.867Z,95762.69
2023-03-30T09:45:36.980Z,95764.53
2023-03-30T09:46:41.653Z,95769.88
2023-03-30T09:47:43.865Z,95759.50
2023-03-30T09:48:50.600Z,95761.16
2023-03-30T09:49:57.766Z,95759.16
2023-03-30T09:51:02.467Z,95761.34
2023-03-30T09:52:09.519Z,95747.47
2023-03-30T09:53:25.113Z,95737.94
2023-03-30T09:54:37.904Z,95749.06
2023-03-30T09:55:42.673Z,95739.91
2023-03-30T09:56:51.656Z,95736.53
2023-03-30T09:57:57.239Z,95725.78
2023-03-30T09:59:01.913Z,95726.94
2023-03-30T10:00:27.725Z,95722.06
2023-03-30T10:01:40.676Z,95732.59
2023-03-30T10:02:58.472Z,95728.59
2023-03-30T10:04:11.099Z,95733.72
2023-03-30T10:05:18.562Z,95740.00
2023-03-30T10:06:24.830Z,95746.88
2023-03-30T10:07:29.824Z,95749.88
2023-03-30T10:08:34.678Z,95749.88
2023-03-30T10:09:47.510Z,95762.16
2023-03-30T10:10:54.885Z,95755.59
2023-03-30T10:12:00.422Z,95759.38
2023-03-30T10:13:06.510Z,95752.34
2023-03-30T10:14:30.224Z,95747.47
2023-03-30T10:15:32.654Z,95759.31
2023-03-30T10:16:38.431Z,95755.34
2023-03-30T10:17:43.926Z,95763.59
2023-03-30T10:18:49.449Z,95757.56
2023-03-30T10:21:05.270Z,95758.97
2023-03-30T10:22:18.154Z,95766.38
2023-03-30T10:23:23.230Z,95753.09
2023-03-30T10:24:31.760Z,95755.72
2023-03-30T10:25:38.978Z,95756.16
2023-03-30T10:26:48.525Z,95756.72
2023-03-30T10:27:53.724Z,95769.16
2023-03-30T10:29:01.282Z,95758.50
2023-03-30T10:30:10.029Z,95754.50
2023-03-30T10:31:18.974Z,95755.53
2023-03-30T10:32:27.208Z,95755.91
2023-03-30T10:33:30.595Z,95748.88
2023-03-30T10:34:40.694Z,95747.91
2023-03-30T10:35:45.535Z,95750.41
2023-03-30T10:36:54.757Z,95750.47
2023-03-30T10:38:00.173Z,95750.78
2023-03-30T10:39:09.204Z,95755.44
2023-03-30T10:40:21.262Z,95757.09
2023-03-30T10:41:28.713Z,95761.66
2023-03-30T10:42:35.985Z,95754.03
2023-03-30T10:43:38.572Z,95766.00
2023-03-30T10:44:48.958Z,95752.53
2023-03-30T10:45:54.035Z,95756.97
2023-03-30T10:47:17.733Z,95754.56
2023-03-30T10:48:43.442Z,95754.50
2023-03-30T10:50:06.068Z,95753.19
2023-03-30T10:51:18.071Z,95757.47
2023-03-30T10:52:30.067Z,95757.19
2023-03-30T10:53:46.682Z,95754.69
2023-03-30T10:54:58.617Z,95745.63
2023-03-30T10:56:09.588Z,95747.31
2023-03-30T10:57:19.109Z,95744.66
2023-03-30T10:58:38.225Z,95740.19
2023-03-30T11:00:00.412Z,95737.50
2023-03-30T11:01:12.014Z,95729.25
2023-03-30T11:02:30.434Z,95728.22
2023-03-30T11:03:34.131Z,95735.19
2023-03-30T11:04:44.078Z,95724.50
2023-03-30T11:05:52.915Z,95728.06
2023-03-30T11:07:01.233Z,95726.78
2023-03-30T11:08:06.539Z,95724.16
2023-03-30T11:09:18.853Z,95728.16
2023-03-30T11:10:22.774Z,95728.53
2023-03-30T11:11:34.929Z,95730.41
2023-03-30T11:12:46.782Z,95727.25
2023-03-30T11:13:55.796Z,95730.34
2023-03-30T11:15:04.468Z,95735.72
2023-03-30T11:16:16.991Z,95732.94
2023-03-30T11:17:24.332Z,95727.59
2023-03-30T11:18:35.927Z,95727.03
2023-03-30T11:19:42.643Z,95733.28
2023-03-30T11:20:54.230Z,95733.09
2023-03-30T11:22:03.029Z,95718.72
2023-03-30T11:23:16.549Z,95720.75
2023-03-30T11:24:24.277Z,95714.25
2023-03-30T11:25:30.785Z,95720.38
2023-03-30T11:26:41.385Z,95722.59
2023-03-30T11:27:57.256Z,95731.91
2023-03-30T11:29:08.820Z,95731.22
2023-03-30T11:30:19.853Z,95736.16
2023-03-30T11:31:35.432Z,95734.50
2023-03-30T11:32:47.457Z,95734.66
2023-03-30T11:33:57.666Z,95735.31
2023-03-30T11:35:13.918Z,95743.66
2023-03-30T11:36:22.083Z,95741.31
2023-03-30T11:37:35.634Z,95749.09
2023-03-30T11:38:47.481Z,95754.66
2023-03-30T11:39:58.041Z,95760.97
2023-03-30T11:41:07.280Z,95753.16
2023-03-30T11:42:17.334Z,95752.59
2023-03-30T11:43:27.280Z,95750.56
2023-03-30T11:44:29.691Z,95749.22
2023-03-30T11:45:55.971Z,95749.41
2023-03-30T11:47:10.290Z,95750.78
2023-03-30T11:48:36.148Z,95741.88
2023-03-30T11:49:47.093Z,95738.06
2023-03-30T11:51:08.233Z,95745.78
2023-03-30T11:52:26.680Z,95755.44
2023-03-30T11:53:39.732Z,95759.19
2023-03-30T11:55:03.444Z,95760.47
2023-03-30T11:56:10.992Z,95748.34
2023-03-30T11:57:25.451Z,95750.88
2023-03-30T11:58:37.883Z,95758.81
2023-03-30T11:59:52.779Z,95766.34
2023-03-30T12:01:08.243Z,95761.97
2023-03-30T12:02:26.987Z,95750.41
2023-03-30T12:03:39.803Z,95755.75
2023-03-30T12:04:51.406Z,95761.91
2023-03-30T12:05:59.925Z,95765.75
2023-03-30T12:07:04.928Z,95757.22
2023-03-30T12:08:20.625Z,95754.25
2023-03-30T12:09:31.819Z,95752.22
2023-03-30T12:10:42.522Z,95759.50
2023-03-30T12:11:51.860Z,95761.69
2023-03-30T12:12:57.049Z,95755.53
2023-03-30T12:14:04.727Z,95754.03
2023-03-30T12:15:35.592Z,95757.78
2023-03-30T12:16:47.066Z,95748.75
2023-03-30T12:17:54.320Z,95761.84
2023-03-30T12:19:14.001Z,95766.78
2023-03-30T12:20:35.883Z,95762.97
2023-03-30T12:21:48.991Z,95762.38
2023-03-30T12:22:58.092Z,95758.25
2023-03-30T12:24:11.255Z,95761.31
2023-03-30T12:25:22.912Z,95772.25
2023-03-30T12:26:28.898Z,95770.03
2023-03-30T12:27:38.934Z,95753.19
2023-03-30T12:30:13.679Z,95750.72
2023-03-30T12:31:17.317Z,95753.75
2023-03-30T12:32:27.685Z,95748.66
2023-03-30T12:33:38.506Z,95749.28
2023-03-30T12:34:41.852Z,95757.91
2023-03-30T12:35:59.114Z,95755.88
2023-03-30T12:37:10.298Z,95751.00
2023-03-30T12:38:17.761Z,95754.22
2023-03-30T12:39:31.365Z,95752.72
2023-03-30T12:40:33.481Z,95742.59
2023-03-30T12:41:44.904Z,95729.59
2023-03-30T12:42:55.917Z,95747.13
2023-03-30T12:44:32.658Z,95740.69
2023-03-30T12:45:51.052Z,95736.72
2023-03-30T12:47:06.937Z,95729.44
2023-03-30T12:48:26.988Z,95740.25
2023-03-30T12:49:46.788Z,95733.00
2023-03-30T12:51:02.679Z,95727.81
2023-03-30T12:52:10.839Z,95718.66
2023-03-30T12:53:46.766Z,95722.63
2023-03-30T12:55:11.154Z,95720.59
2023-03-30T12:56:29.122Z,95716.44
2023-03-30T12:57:46.287Z,95711.06
2023-03-30T12:59:07.932Z,95708.16
2023-03-30T13:00:48.139Z,95702.13
2023-03-30T13:02:06.444Z,95695.69
2023-03-30T13:03:32.071Z,95698.78
2023-03-30T13:04:40.468Z,95681.28
2023-03-30T13:05:44.619Z,95692.53
2023-03-30T13:06:55.939Z,95701.00
2023-03-30T13:08:03.640Z,95694.09
2023-03-30T13:09:34.098Z,95691.13
2023-03-30T13:10:40.339Z,95688.44
2023-03-30T13:11:50.236Z,95683.09
2023-03-30T13:12:55.996Z,95683.59
2023-03-30T13:14:03.541Z,95681.22
2023-03-30T13:15:34.649Z,95675.97
2023-03-30T13:17:13.113Z,95664.69
2023-03-30T13:18:55.842Z,95661.66
2023-03-30T13:20:29.139Z,95658.13
2023-03-30T13:21:49.941Z,95664.44